createdAt,value
2022-09-01T00:05:55.441Z,8.73
2022-09-01T00:10:57.598Z,11.90
2022-09-01T00:16:01.335Z,6.55
2022-09-01T00:21:03.326Z,6.32
2022-09-01T00:26:05.927Z,6.80
2022-09-01T00:31:08.977Z,9.23
2022-09-01T00:41:14.656Z,7.47
2022-09-01T00:46:21.996Z,5.22
2022-09-01T00:51:24.795Z,7.93
2022-09-01T00:56:26.961Z,6.15
2022-09-01T01:01:29.017Z,8.57
2022-09-01T01:06:33.377Z,8.25
2022-09-01T01:11:36.220Z,7.93
2022-09-01T01:16:45.471Z,6.50
2022-09-01T01:22:06.285Z,8.20
2022-09-01T01:32:13.294Z,7.93
2022-09-01T01:37:15.608Z,7.50
2022-09-01T01:42:18.258Z,7.55
2022-09-01T01:52:26.181Z,7.53
2022-09-01T01:57:33.308Z,9.10
2022-09-01T02:02:35.504Z,8.25
2022-09-01T02:07:42.564Z,7.07
2022-09-01T02:12:44.648Z,6.78
2022-09-01T02:17:47.316Z,8.32
2022-09-01T02:22:52.206Z,8.77
2022-09-01T02:27:55.714Z,8.80
2022-09-01T02:32:58.895Z,6.25
2022-09-01T02:38:01.935Z,6.80
2022-09-01T02:43:03.978Z,8.02
2022-09-01T02:48:10.540Z,6.43
2022-09-01T02:53:15.600Z,5.40
2022-09-01T02:58:20.372Z,6.38
2022-09-01T03:03:27.245Z,6.10
2022-09-01T03:08:31.893Z,5.30
2022-09-01T03:13:34.350Z,5.18
2022-09-01T03:18:37.033Z,7.95
2022-09-01T03:23:39.288Z,5.80
2022-09-01T03:28:41.500Z,9.63
2022-09-01T03:33:44.830Z,5.40
2022-09-01T03:38:56.066Z,6.93
2022-09-01T03:43:59.545Z,7.78
2022-09-01T03:49:06.796Z,7.15
2022-09-01T03:54:12.145Z,6.30
2022-09-01T03:59:17.406Z,6.53
2022-09-01T04:04:21.413Z,6.15
2022-09-01T04:09:23.549Z,7.18
2022-09-01T04:14:30.517Z,8.05
2022-09-01T04:19:39.818Z,6.25
2022-09-01T04:24:46.016Z,12.88
2022-09-01T04:29:48.668Z,7.50
2022-09-01T04:34:51.164Z,6.72
2022-09-01T04:39:56.866Z,7.68
2022-09-01T04:45:09.962Z,7.97
2022-09-01T04:50:17.927Z,5.63
2022-09-01T04:55:43.988Z,5.68
2022-09-01T05:00:48.607Z,6.70
2022-09-01T05:05:54.323Z,5.10
2022-09-01T05:10:57.477Z,6.53
2022-09-01T05:16:24.103Z,4.05
2022-09-01T05:21:30.014Z,4.45
2022-09-01T05:26:34.790Z,4.68
2022-09-01T05:31:38.378Z,7.78
2022-09-01T05:36:46.428Z,7.38
2022-09-01T05:41:50.089Z,4.93
2022-09-01T05:46:53.894Z,8.20
2022-09-01T05:51:59.032Z,5.25
2022-09-01T05:57:23.332Z,6.85
2022-09-01T06:02:27.565Z,10.02
2022-09-01T06:07:32.695Z,6.25
2022-09-01T06:12:36.242Z,5.88
2022-09-01T06:17:38.386Z,6.85
2022-09-01T06:22:41.334Z,6.68
2022-09-01T06:27:46.017Z,6.30
2022-09-01T06:32:49.909Z,6.40
2022-09-01T06:37:53.011Z,7.35
2022-09-01T06:43:17.560Z,4.82
2022-09-01T06:48:24.100Z,6.45
2022-09-01T06:53:32.721Z,7.22
2022-09-01T06:58:38.427Z,7.13
2022-09-01T07:03:40.560Z,8.40
2022-09-01T07:14:19.628Z,19.83
2022-09-01T07:19:22.072Z,10.18
2022-09-01T07:24:31.963Z,10.63
2022-09-01T07:29:56.428Z,9.57
2022-09-01T07:34:58.621Z,8.63
2022-09-01T07:45:35.460Z,6.68
2022-09-01T07:56:11.482Z,9.45
2022-09-01T08:01:23.312Z,9.18
2022-09-01T08:06:27.939Z,8.15
2022-09-01T08:16:54.229Z,7.10
2022-09-01T08:21:57.693Z,5.97
2022-09-01T08:27:10.309Z,7.95
2022-09-01T08:32:12.524Z,5.75
2022-09-01T08:37:14.699Z,5.57
2022-09-01T08:42:22.306Z,7.65
2022-09-01T08:53:28.580Z,6.05
2022-09-01T08:58:32.597Z,6.45
2022-09-01T09:14:28.607Z,6.32
2022-09-01T09:19:36.106Z,6.28
2022-09-01T09:24:48.252Z,6.40
2022-09-01T09:29:56.762Z,6.05
2022-09-01T09:35:17.111Z,5.63
2022-09-01T09:40:27.253Z,7.70
2022-09-01T09:45:41.860Z,5.13
2022-09-01T09:50:44.468Z,7.55
2022-09-01T09:56:19.688Z,5.65
2022-09-01T10:01:26.120Z,6.80
2022-09-01T10:06:33.473Z,5.70
2022-09-01T10:11:41.965Z,7.25
2022-09-01T10:16:48.159Z,4.00
2022-09-01T10:21:50.726Z,4.50
2022-09-01T10:26:57.399Z,3.97
2022-09-01T10:32:30.497Z,4.20
2022-09-01T10:37:24.344Z,6.35
2022-09-01T10:42:28.325Z,4.97
2022-09-01T10:47:38.076Z,5.38
2022-09-01T10:52:43.177Z,5.35
2022-09-01T10:58:09.308Z,4.68
2022-09-01T11:03:40.889Z,5.38
2022-09-01T11:08:57.664Z,4.88
2022-09-01T11:14:00.871Z,4.45
2022-09-01T11:19:31.739Z,5.82
2022-09-01T11:24:40.404Z,7.47
2022-09-01T11:29:56.586Z,4.68
2022-09-01T11:35:03.654Z,6.57
2022-09-01T11:40:10.526Z,4.85
2022-09-01T11:45:23.690Z,5.50
2022-09-01T11:50:34.342Z,5.43
2022-09-01T11:55:44.956Z,5.93
2022-09-01T12:00:47.779Z,5.47
2022-09-01T12:06:00.574Z,5.85
2022-09-01T12:11:08.798Z,4.78
2022-09-01T12:16:18.524Z,5.00
2022-09-01T12:21:33.918Z,4.05
2022-09-01T12:31:43.399Z,4.68
2022-09-01T12:37:09.980Z,5.57
2022-09-01T12:42:38.939Z,3.95
2022-09-01T12:47:48.442Z,5.45
2022-09-01T12:53:04.348Z,6.57
2022-09-01T12:58:09.200Z,4.55
2022-09-01T13:03:18.219Z,4.07
2022-09-01T13:08:23.287Z,4.47
2022-09-01T13:13:26.833Z,5.68
2022-09-01T13:18:29.650Z,7.05
2022-09-01T13:23:32.211Z,6.30
2022-09-01T13:28:36.371Z,4.15
2022-09-01T13:39:03.299Z,5.82
2022-09-01T13:44:05.398Z,5.32
2022-09-01T13:49:42.153Z,6.85
2022-09-01T13:54:29.763Z,3.58
2022-09-01T13:59:33.188Z,6.07
2022-09-01T14:04:35.299Z,6.05
2022-09-01T14:20:03.305Z,3.92
2022-09-01T14:25:05.984Z,7.22
2022-09-01T14:30:10.107Z,8.48
2022-09-01T14:35:12.538Z,4.05
2022-09-01T14:40:17.176Z,4.18
2022-09-01T14:45:22.947Z,4.68
2022-09-01T14:50:25.774Z,7.10
2022-09-01T14:55:30.310Z,7.70
2022-09-01T15:00:36.119Z,5.50
2022-09-01T15:05:39.830Z,6.25
2022-09-01T15:10:42.537Z,4.93
2022-09-01T15:15:44.742Z,6.20
2022-09-01T15:20:47.025Z,4.40
2022-09-01T15:25:52.496Z,5.93
2022-09-01T15:30:54.741Z,5.30
2022-09-01T15:35:56.847Z,9.18
2022-09-01T15:41:00.229Z,9.43
2022-09-01T15:46:04.562Z,10.18
2022-09-01T15:51:26.601Z,11.07
2022-09-01T15:56:28.837Z,10.77
2022-09-01T16:01:34.674Z,13.02
2022-09-01T16:06:36.770Z,12.70
2022-09-01T16:11:40.329Z,10.93
2022-09-01T16:16:42.420Z,9.05
2022-09-01T16:22:10.664Z,13.63
2022-09-01T16:27:17.001Z,12.15
2022-09-01T16:32:21.675Z,16.33
2022-09-01T16:37:55.652Z,14.23
2022-09-01T16:43:09.514Z,12.93
2022-09-01T16:48:26.909Z,11.77
2022-09-01T16:54:24.948Z,14.85
2022-09-01T16:59:51.859Z,15.25
2022-09-01T17:05:05.219Z,13.55
2022-09-01T17:10:25.496Z,16.40
2022-09-01T17:15:41.012Z,15.57
2022-09-01T17:20:54.994Z,11.90
2022-09-01T17:26:05.101Z,15.45
2022-09-01T17:31:14.733Z,11.88
2022-09-01T17:36:51.868Z,9.85
2022-09-01T17:42:38.666Z,15.40
2022-09-01T17:48:07.859Z,12.43
2022-09-01T17:53:41.068Z,13.20
2022-09-01T18:04:36.051Z,11.80
2022-09-01T18:09:45.907Z,10.15
2022-09-01T18:15:11.323Z,10.13
2022-09-01T18:20:27.449Z,12.02
2022-09-01T18:25:39.707Z,14.40
2022-09-01T18:30:59.926Z,11.52
2022-09-01T18:36:07.952Z,10.93
2022-09-01T18:41:43.493Z,19.65
2022-09-01T18:46:55.308Z,10.27
2022-09-01T18:52:09.354Z,15.38
2022-09-01T18:57:21.242Z,11.02
2022-09-01T19:02:48.397Z,11.02
2022-09-01T19:07:56.106Z,10.13
2022-09-01T19:13:18.194Z,13.05
2022-09-01T19:18:29.853Z,11.35
2022-09-01T19:23:47.650Z,9.70
2022-09-01T19:28:54.539Z,10.52
2022-09-01T19:34:25.633Z,9.27
2022-09-01T19:39:38.433Z,11.18
2022-09-01T19:44:49.123Z,13.68
2022-09-01T19:50:09.509Z,11.48
2022-09-01T19:55:29.176Z,10.43
2022-09-01T20:00:53.672Z,10.02
2022-09-01T20:06:05.010Z,11.40
2022-09-01T20:11:43.368Z,10.40
2022-09-01T20:16:49.889Z,11.07
2022-09-01T20:21:52.179Z,15.02
2022-09-01T20:27:05.514Z,13.25
2022-09-01T20:32:10.454Z,9.43
2022-09-01T20:37:36.829Z,10.00
2022-09-01T20:43:12.928Z,13.77
2022-09-01T20:48:18.478Z,12.90
2022-09-01T20:53:36.299Z,10.00
2022-09-01T20:58:53.015Z,10.38
2022-09-01T21:04:17.180Z,13.85
2022-09-01T21:09:25.870Z,13.65
2022-09-01T21:14:49.149Z,12.27
2022-09-01T21:20:09.982Z,11.07
2022-09-01T21:25:12.290Z,12.95
2022-09-01T21:30:15.351Z,13.65
2022-09-01T21:35:20.028Z,11.63
2022-09-01T21:40:25.569Z,11.13
2022-09-01T21:45:28.105Z,13.23
2022-09-01T21:50:30.510Z,19.63
2022-09-01T21:55:32.719Z,15.27
2022-09-01T22:00:39.534Z,12.90
2022-09-01T22:05:45.146Z,14.93
2022-09-01T22:10:49.934Z,16.27
2022-09-01T22:15:53.742Z,15.25
2022-09-01T22:21:07.612Z,14.10
2022-09-01T22:26:17.653Z,11.35
2022-09-01T22:31:21.598Z,15.43
2022-09-01T22:36:36.988Z,12.18
2022-09-01T22:41:41.204Z,13.77
2022-09-01T22:46:43.258Z,13.52
2022-09-01T22:51:45.645Z,9.07
2022-09-01T22:56:49.979Z,16.88
2022-09-01T23:01:52.055Z,12.30
2022-09-01T23:06:54.642Z,9.50
2022-09-01T23:11:57.003Z,14.30
2022-09-01T23:16:59.110Z,12.73
2022-09-01T23:22:01.367Z,11.15
2022-09-01T23:27:03.693Z,10.88
2022-09-01T23:32:05.895Z,9.63
2022-09-01T23:37:08.157Z,13.48
2022-09-01T23:42:10.590Z,10.68
2022-09-01T23:47:12.691Z,11.38
2022-09-01T23:52:15.278Z,15.73
2022-09-01T23:57:17.394Z,14.02
